sensor_id;sensor_type;location;lat;lon;timestamp;pressure;altitude;pressure_sealevel;temperature;humidity
71299;BME280;59083;47.974;21.722;2023-06-26T00:02:27;100218.44;;;18.86;84.61
71299;BME280;59083;47.974;21.722;2023-06-26T00:05:28;100217.16;;;18.89;84.72
71299;BME280;59083;47.974;21.722;2023-06-26T00:08:31;100217.91;;;18.84;84.27
71299;BME280;59083;47.974;21.722;2023-06-26T00:11:32;100208.81;;;18.74;84.31
71299;BME280;59083;47.974;21.722;2023-06-26T00:14:34;100221.06;;;18.65;85.13
71299;BME280;59083;47.974;21.722;2023-06-26T00:17:37;100209.13;;;18.61;85.71
71299;BME280;59083;47.974;21.722;2023-06-26T00:20:38;100212.88;;;18.60;85.37
71299;BME280;59083;47.974;21.722;2023-06-26T00:23:40;100211.75;;;18.55;85.55
71299;BME280;59083;47.974;21.722;2023-06-26T00:26:41;100215.00;;;18.57;85.58
71299;BME280;59083;47.974;21.722;2023-06-26T00:29:42;100204.69;;;18.54;85.43
71299;BME280;59083;47.974;21.722;2023-06-26T00:32:44;100207.28;;;18.49;86.29
71299;BME280;59083;47.974;21.722;2023-06-26T00:35:45;100198.44;;;18.54;86.54
71299;BME280;59083;47.974;21.722;2023-06-26T00:38:46;100197.03;;;18.51;86.12
71299;BME280;59083;47.974;21.722;2023-06-26T00:41:47;100190.75;;;18.46;86.28
71299;BME280;59083;47.974;21.722;2023-06-26T00:44:48;100190.41;;;18.42;86.71
71299;BME280;59083;47.974;21.722;2023-06-26T00:47:50;100187.62;;;18.37;87.00
71299;BME280;59083;47.974;21.722;2023-06-26T00:50:51;100190.75;;;18.46;87.36
71299;BME280;59083;47.974;21.722;2023-06-26T00:53:53;100180.28;;;18.49;87.84
71299;BME280;59083;47.974;21.722;2023-06-26T00:56:54;100188.94;;;18.51;87.32
71299;BME280;59083;47.974;21.722;2023-06-26T00:59:55;100194.69;;;18.38;86.97
71299;BME280;59083;47.974;21.722;2023-06-26T01:02:57;100190.25;;;18.32;87.47
71299;BME280;59083;47.974;21.722;2023-06-26T01:06:01;100192.84;;;18.27;87.60
71299;BME280;59083;47.974;21.722;2023-06-26T01:09:03;100191.69;;;18.23;88.40
71299;BME280;59083;47.974;21.722;2023-06-26T01:12:04;100195.94;;;18.19;88.81
71299;BME280;59083;47.974;21.722;2023-06-26T01:15:06;100193.16;;;18.14;88.96
71299;BME280;59083;47.974;21.722;2023-06-26T01:18:08;100196.22;;;18.06;89.57
71299;BME280;59083;47.974;21.722;2023-06-26T01:21:09;100192.00;;;18.10;90.45
71299;BME280;59083;47.974;21.722;2023-06-26T01:24:16;100189.41;;;18.15;90.45
71299;BME280;59083;47.974;21.722;2023-06-26T01:27:24;100193.66;;;18.11;91.76
71299;BME280;59083;47.974;21.722;2023-06-26T01:30:27;100188.94;;;18.06;91.39
71299;BME280;59083;47.974;21.722;2023-06-26T01:33:30;100187.56;;;18.04;91.45
71299;BME280;59083;47.974;21.722;2023-06-26T01:36:32;100184.28;;;18.02;91.51
71299;BME280;59083;47.974;21.722;2023-06-26T01:39:33;100179.37;;;17.99;91.45
71299;BME280;59083;47.974;21.722;2023-06-26T01:42:35;100186.97;;;18.02;92.28
71299;BME280;59083;47.974;21.722;2023-06-26T01:45:36;100175.13;;;18.03;91.29
71299;BME280;59083;47.974;21.722;2023-06-26T01:48:52;100173.03;;;18.05;91.18
71299;BME280;59083;47.974;21.722;2023-06-26T01:58:51;100175.91;;;17.87;92.03
71299;BME280;59083;47.974;21.722;2023-06-26T02:01:56;100175.41;;;17.90;91.88
71299;BME280;59083;47.974;21.722;2023-06-26T02:04:58;100177.56;;;17.88;92.98
71299;BME280;59083;47.974;21.722;2023-06-26T02:07:59;100179.37;;;17.99;92.30
71299;BME280;59083;47.974;21.722;2023-06-26T02:11:04;100178.88;;;18.02;92.29
71299;BME280;59083;47.974;21.722;2023-06-26T02:14:05;100172.37;;;18.14;92.35
71299;BME280;59083;47.974;21.722;2023-06-26T02:17:07;100176.72;;;18.15;92.99
71299;BME280;59083;47.974;21.722;2023-06-26T02:20:10;100178.97;;;18.07;92.29
71299;BME280;59083;47.974;21.722;2023-06-26T02:23:11;100176.09;;;17.97;92.79
71299;BME280;59083;47.974;21.722;2023-06-26T02:26:13;100182.00;;;17.94;93.34
71299;BME280;59083;47.974;21.722;2023-06-26T02:29:17;100178.84;;;17.85;92.94
71299;BME280;59083;47.974;21.722;2023-06-26T02:32:18;100170.88;;;17.79;92.98
71299;BME280;59083;47.974;21.722;2023-06-26T02:35:19;100183.56;;;17.66;93.85
71299;BME280;59083;47.974;21.722;2023-06-26T02:38:21;100179.13;;;17.60;94.94
71299;BME280;59083;47.974;21.722;2023-06-26T02:41:22;100176.44;;;17.60;96.36
71299;BME280;59083;47.974;21.722;2023-06-26T02:44:24;100178.09;;;17.61;96.27
71299;BME280;59083;47.974;21.722;2023-06-26T02:47:25;100183.47;;;17.61;96.19
71299;BME280;59083;47.974;21.722;2023-06-26T02:50:27;100181.84;;;17.60;96.23
71299;BME280;59083;47.974;21.722;2023-06-26T02:53:31;100185.56;;;17.59;96.64
71299;BME280;59083;47.974;21.722;2023-06-26T02:56:32;100191.81;;;17.60;97.67
71299;BME280;59083;47.974;21.722;2023-06-26T02:59:34;100189.47;;;17.63;97.85
71299;BME280;59083;47.974;21.722;2023-06-26T03:02:35;100183.84;;;17.65;98.14
71299;BME280;59083;47.974;21.722;2023-06-26T03:05:41;100181.38;;;17.63;98.67
71299;BME280;59083;47.974;21.722;2023-06-26T03:08:43;100184.06;;;17.63;98.87
71299;BME280;59083;47.974;21.722;2023-06-26T03:11:44;100185.13;;;17.62;98.97
71299;BME280;59083;47.974;21.722;2023-06-26T03:14:46;100183.75;;;17.60;98.27
71299;BME280;59083;47.974;21.722;2023-06-26T03:17:47;100185.56;;;17.59;97.72
71299;BME280;59083;47.974;21.722;2023-06-26T03:20:49;100181.84;;;17.60;97.54
71299;BME280;59083;47.974;21.722;2023-06-26T03:23:50;100185.56;;;17.59;97.55
71299;BME280;59083;47.974;21.722;2023-06-26T03:26:51;100185.94;;;17.63;97.73
71299;BME280;59083;47.974;21.722;2023-06-26T03:29:52;100184.66;;;17.65;97.77
71299;BME280;59083;47.974;21.722;2023-06-26T03:32:55;100184.16;;;17.68;97.61
71299;BME280;59083;47.974;21.722;2023-06-26T03:35:57;100187.78;;;17.74;97.96
71299;BME280;59083;47.974;21.722;2023-06-26T03:39:00;100190.38;;;17.69;96.96
71299;BME280;59083;47.974;21.722;2023-06-26T03:42:01;100192.47;;;17.67;96.63
71299;BME280;59083;47.974;21.722;2023-06-26T03:45:03;100193.78;;;17.64;96.45
71299;BME280;59083;47.974;21.722;2023-06-26T03:48:05;100192.16;;;17.63;96.11
71299;BME280;59083;47.974;21.722;2023-06-26T03:51:07;100190.50;;;17.62;96.63
71299;BME280;59083;47.974;21.722;2023-06-26T03:54:08;100193.50;;;17.77;96.61
71299;BME280;59083;47.974;21.722;2023-06-26T03:57:09;100200.22;;;17.75;96.33
71299;BME280;59083;47.974;21.722;2023-06-26T04:00:11;100194.81;;;17.75;96.26
71299;BME280;59083;47.974;21.722;2023-06-26T04:03:15;100195.34;;;17.89;96.17
71299;BME280;59083;47.974;21.722;2023-06-26T04:06:16;100197.44;;;18.72;92.99
71299;BME280;59083;47.974;21.722;2023-06-26T04:09:17;100200.56;;;19.52;88.86
71299;BME280;59083;47.974;21.722;2023-06-26T04:12:20;100185.69;;;19.98;86.41
71299;BME280;59083;47.974;21.722;2023-06-26T04:15:21;100192.91;;;20.14;85.23
71299;BME280;59083;47.974;21.722;2023-06-26T04:18:22;100188.28;;;20.37;83.96
71299;BME280;59083;47.974;21.722;2023-06-26T04:21:24;100188.28;;;20.69;82.18
71299;BME280;59083;47.974;21.722;2023-06-26T04:24:28;100186.44;;;21.11;79.88
71299;BME280;59083;47.974;21.722;2023-06-26T04:27:29;100202.56;;;21.28;79.76
71299;BME280;59083;47.974;21.722;2023-06-26T04:30:31;100195.31;;;21.43;78.45
71299;BME280;59083;47.974;21.722;2023-06-26T04:33:32;100186.50;;;21.68;78.41
71299;BME280;59083;47.974;21.722;2023-06-26T04:36:33;100195.31;;;22.01;77.37
71299;BME280;59083;47.974;21.722;2023-06-26T04:39:39;100198.69;;;22.74;75.20
71299;BME280;59083;47.974;21.722;2023-06-26T04:42:41;100197.94;;;23.83;69.97
71299;BME280;59083;47.974;21.722;2023-06-26T04:45:42;100201.06;;;24.10;65.90
71299;BME280;59083;47.974;21.722;2023-06-26T04:48:43;100201.00;;;24.31;65.80
71299;BME280;59083;47.974;21.722;2023-06-26T04:51:45;100198.84;;;24.22;65.80
71299;BME280;59083;47.974;21.722;2023-06-26T04:54:47;100199.16;;;24.60;65.95
71299;BME280;59083;47.974;21.722;2023-06-26T04:57:48;100187.50;;;24.00;65.75
71299;BME280;59083;47.974;21.722;2023-06-26T05:00:49;100208.09;;;24.21;65.54
71299;BME280;59083;47.974;21.722;2023-06-26T05:03:50;100198.84;;;24.22;65.47
71299;BME280;59083;47.974;21.722;2023-06-26T05:06:52;100194.44;;;24.26;65.67
71299;BME280;59083;47.974;21.722;2023-06-26T05:09:53;100194.84;;;24.54;65.64
71299;BME280;59083;47.974;21.722;2023-06-26T05:12:54;100196.44;;;24.11;66.93
71299;BME280;59083;47.974;21.722;2023-06-26T05:15:55;100204.00;;;23.65;68.67
71299;BME280;59083;47.974;21.722;2023-06-26T05:18:56;100207.94;;;23.03;70.33
71299;BME280;59083;47.974;21.722;2023-06-26T05:21:58;100206.56;;;23.16;69.64
71299;BME280;59083;47.974;21.722;2023-06-26T05:25:00;100205.16;;;23.33;68.79
71299;BME280;59083;47.974;21.722;2023-06-26T05:28:03;100202.97;;;23.30;68.88
71299;BME280;59083;47.974;21.722;2023-06-26T05:31:06;100206.25;;;23.32;68.89
71299;BME280;59083;47.974;21.722;2023-06-26T05:34:10;100216.09;;;23.03;70.27
71299;BME280;59083;47.974;21.722;2023-06-26T05:37:14;100200.31;;;22.54;72.04
71299;BME280;59083;47.974;21.722;2023-06-26T05:40:19;100210.59;;;23.33;70.64
71299;BME280;59083;47.974;21.722;2023-06-26T05:43:20;100206.78;;;23.50;68.10
71299;BME280;59083;47.974;21.722;2023-06-26T05:46:22;100215.34;;;23.87;66.49
71299;BME280;59083;47.974;21.722;2023-06-26T05:49:23;100211.94;;;24.20;65.64
71299;BME280;59083;47.974;21.722;2023-06-26T05:52:24;100216.75;;;24.73;62.63
71299;BME280;59083;47.974;21.722;2023-06-26T05:55:26;100211.28;;;25.12;62.04
71299;BME280;59083;47.974;21.722;2023-06-26T05:58:27;100203.91;;;26.77;55.80
71299;BME280;59083;47.974;21.722;2023-06-26T06:01:29;100206.94;;;27.27;53.03
71299;BME280;59083;47.974;21.722;2023-06-26T06:04:30;100211.75;;;28.25;51.42
71299;BME280;59083;47.974;21.722;2023-06-26T06:07:32;100206.47;;;27.66;51.35
71299;BME280;59083;47.974;21.722;2023-06-26T06:10:34;100205.38;;;29.28;49.06
71299;BME280;59083;47.974;21.722;2023-06-26T06:13:35;100212.78;;;28.88;49.73
71299;BME280;59083;47.974;21.722;2023-06-26T06:16:37;100211.81;;;29.14;48.84
71299;BME280;59083;47.974;21.722;2023-06-26T06:19:38;100211.84;;;29.54;46.65
71299;BME280;59083;47.974;21.722;2023-06-26T06:22:39;100216.37;;;30.15;46.40
71299;BME280;59083;47.974;21.722;2023-06-26T06:25:40;100212.03;;;30.92;43.55
71299;BME280;59083;47.974;21.722;2023-06-26T06:28:41;100207.47;;;30.87;43.68
71299;BME280;59083;47.974;21.722;2023-06-26T06:31:42;100206.97;;;30.94;42.70
71299;BME280;59083;47.974;21.722;2023-06-26T06:34:44;100212.88;;;30.49;44.10
71299;BME280;59083;47.974;21.722;2023-06-26T06:37:45;100203.13;;;30.77;43.63
71299;BME280;59083;47.974;21.722;2023-06-26T06:40:46;100212.78;;;31.56;41.64
71299;BME280;59083;47.974;21.722;2023-06-26T06:43:47;100199.47;;;31.96;40.86
71299;BME280;59083;47.974;21.722;2023-06-26T06:46:49;100187.94;;;32.23;40.36
71299;BME280;59083;47.974;21.722;2023-06-26T06:49:50;100207.13;;;31.52;39.86
71299;BME280;59083;47.974;21.722;2023-06-26T06:52:51;100207.38;;;31.77;40.30
71299;BME280;59083;47.974;21.722;2023-06-26T06:55:52;100204.62;;;31.77;40.93
71299;BME280;59083;47.974;21.722;2023-06-26T06:58:53;100208.28;;;30.88;41.70
71299;BME280;59083;47.974;21.722;2023-06-26T07:01:54;100207.31;;;30.15;43.10
71299;BME280;59083;47.974;21.722;2023-06-26T07:04:56;100203.28;;;29.95;44.79
71299;BME280;59083;47.974;21.722;2023-06-26T07:07:57;100204.91;;;30.22;44.48
71299;BME280;59083;47.974;21.722;2023-06-26T07:10:58;100211.38;;;30.00;44.80
71299;BME280;59083;47.974;21.722;2023-06-26T07:13:59;100199.81;;;29.81;44.66
71299;BME280;59083;47.974;21.722;2023-06-26T07:17:01;100206.69;;;30.18;44.45
71299;BME280;59083;47.974;21.722;2023-06-26T07:20:02;100205.81;;;31.21;43.36
71299;BME280;59083;47.974;21.722;2023-06-26T07:23:09;100205.66;;;31.93;41.74
71299;BME280;59083;47.974;21.722;2023-06-26T07:26:10;100204.31;;;31.99;40.62
71299;BME280;59083;47.974;21.722;2023-06-26T07:29:11;100213.19;;;31.84;41.41
71299;BME280;59083;47.974;21.722;2023-06-26T07:32:12;100199.19;;;32.39;40.37
71299;BME280;59083;47.974;21.722;2023-06-26T07:35:15;100201.25;;;32.21;39.58
71299;BME280;59083;47.974;21.722;2023-06-26T07:38:17;100205.03;;;32.37;40.03
71299;BME280;59083;47.974;21.722;2023-06-26T07:41:18;100212.69;;;30.37;43.04
71299;BME280;59083;47.974;21.722;2023-06-26T07:44:19;100205.22;;;32.32;40.13
71299;BME280;59083;47.974;21.722;2023-06-26T07:47:21;100206.44;;;33.09;38.74
71299;BME280;59083;47.974;21.722;2023-06-26T07:50:22;100206.25;;;32.69;38.10
71299;BME280;59083;47.974;21.722;2023-06-26T07:53:25;100215.25;;;32.37;38.27
71299;BME280;59083;47.974;21.722;2023-06-26T07:56:26;100215.34;;;31.70;38.29
71299;BME280;59083;47.974;21.722;2023-06-26T07:59:28;100208.59;;;32.17;37.90
71299;BME280;59083;47.974;21.722;2023-06-26T08:02:29;100211.91;;;31.73;38.44
71299;BME280;59083;47.974;21.722;2023-06-26T08:05:31;100213.03;;;31.42;38.99
71299;BME280;59083;47.974;21.722;2023-06-26T08:08:32;100214.22;;;31.33;39.85
71299;BME280;59083;47.974;21.722;2023-06-26T08:11:34;100210.47;;;31.37;39.25
71299;BME280;59083;47.974;21.722;2023-06-26T08:14:35;100216.06;;;31.03;40.09
71299;BME280;59083;47.974;21.722;2023-06-26T08:17:37;100204.84;;;31.63;40.51
71299;BME280;59083;47.974;21.722;2023-06-26T08:20:38;100207.72;;;31.29;41.37
71299;BME280;59083;47.974;21.722;2023-06-26T08:23:40;100211.16;;;31.64;40.60
71299;BME280;59083;47.974;21.722;2023-06-26T08:26:41;100211.62;;;32.24;39.21
71299;BME280;59083;47.974;21.722;2023-06-26T08:29:42;100207.72;;;32.25;38.62
71299;BME280;59083;47.974;21.722;2023-06-26T08:32:43;100211.47;;;31.24;40.17
71299;BME280;59083;47.974;21.722;2023-06-26T08:35:45;100210.41;;;32.13;40.01
71299;BME280;59083;47.974;21.722;2023-06-26T08:38:46;100214.78;;;32.14;39.67
71299;BME280;59083;47.974;21.722;2023-06-26T08:41:47;100210.44;;;32.05;39.59
71299;BME280;59083;47.974;21.722;2023-06-26T08:44:48;100206.25;;;32.69;38.72
71299;BME280;59083;47.974;21.722;2023-06-26T08:47:53;100199.41;;;33.20;38.58
71299;BME280;59083;47.974;21.722;2023-06-26T08:50:57;100212.72;;;32.65;38.04
71299;BME280;59083;47.974;21.722;2023-06-26T08:54:01;100216.28;;;32.03;39.19
71299;BME280;59083;47.974;21.722;2023-06-26T08:57:04;100205.06;;;31.79;37.31
71299;BME280;59083;47.974;21.722;2023-06-26T09:00:07;100203.50;;;30.50;39.74
71299;BME280;59083;47.974;21.722;2023-06-26T09:03:09;100208.91;;;31.66;37.44
71299;BME280;59083;47.974;21.722;2023-06-26T09:06:11;100198.88;;;31.61;37.71
71299;BME280;59083;47.974;21.722;2023-06-26T09:09:12;100200.47;;;31.62;37.68
71299;BME280;59083;47.974;21.722;2023-06-26T09:12:13;100195.69;;;30.87;39.46
71299;BME280;59083;47.974;21.722;2023-06-26T09:15:15;100198.78;;;30.68;37.85
71299;BME280;59083;47.974;21.722;2023-06-26T09:18:18;100197.00;;;30.29;38.86
71299;BME280;59083;47.974;21.722;2023-06-26T09:21:21;100192.00;;;31.29;38.56
71299;BME280;59083;47.974;21.722;2023-06-26T09:24:22;100191.16;;;30.73;38.21
71299;BME280;59083;47.974;21.722;2023-06-26T09:27:23;100196.50;;;30.35;39.40
71299;BME280;59083;47.974;21.722;2023-06-26T09:30:25;100196.16;;;30.03;39.32
71299;BME280;59083;47.974;21.722;2023-06-26T09:33:26;100182.69;;;29.36;41.51
71299;BME280;59083;47.974;21.722;2023-06-26T09:36:29;100193.41;;;30.20;40.33
71299;BME280;59083;47.974;21.722;2023-06-26T09:39:33;100192.00;;;29.26;41.77
71299;BME280;59083;47.974;21.722;2023-06-26T09:42:35;100193.06;;;29.16;43.29
71299;BME280;59083;47.974;21.722;2023-06-26T09:45:36;100197.19;;;27.34;45.81
71299;BME280;59083;47.974;21.722;2023-06-26T09:48:39;100197.28;;;27.29;45.08
71299;BME280;59083;47.974;21.722;2023-06-26T09:51:41;100192.25;;;27.64;44.70
71299;BME280;59083;47.974;21.722;2023-06-26T09:54:43;100198.19;;;28.07;41.43
71299;BME280;59083;47.974;21.722;2023-06-26T09:57:48;100194.94;;;28.18;40.80
71299;BME280;59083;47.974;21.722;2023-06-26T10:00:50;100194.53;;;28.11;40.94
71299;BME280;59083;47.974;21.722;2023-06-26T10:03:56;100190.22;;;28.32;41.94
71299;BME280;59083;47.974;21.722;2023-06-26T10:07:01;100182.53;;;28.79;43.62
71299;BME280;59083;47.974;21.722;2023-06-26T10:10:05;100179.75;;;28.34;44.20
71299;BME280;59083;47.974;21.722;2023-06-26T10:13:31;100185.06;;;27.68;43.82
71299;BME280;59083;47.974;21.722;2023-06-26T10:16:36;100190.09;;;27.20;43.70
71299;BME280;59083;47.974;21.722;2023-06-26T10:19:40;100178.38;;;27.74;41.64
71299;BME280;59083;47.974;21.722;2023-06-26T10:22:45;100184.03;;;27.77;41.71
71299;BME280;59083;47.974;21.722;2023-06-26T10:25:48;100180.16;;;27.37;42.50
71299;BME280;59083;47.974;21.722;2023-06-26T10:28:53;100180.94;;;28.06;41.96
71299;BME280;59083;47.974;21.722;2023-06-26T10:31:57;100182.66;;;28.52;39.58
71299;BME280;59083;47.974;21.722;2023-06-26T10:34:59;100181.72;;;28.79;39.87
71299;BME280;59083;47.974;21.722;2023-06-26T10:38:03;100180.63;;;28.66;41.05
71299;BME280;59083;47.974;21.722;2023-06-26T10:41:11;100180.81;;;29.23;40.39
71299;BME280;59083;47.974;21.722;2023-06-26T10:44:16;100176.69;;;29.34;40.19
71299;BME280;59083;47.974;21.722;2023-06-26T10:47:29;100177.72;;;30.03;39.97
71299;BME280;59083;47.974;21.722;2023-06-26T10:50:33;100176.63;;;30.30;40.75
71299;BME280;59083;47.974;21.722;2023-06-26T10:53:38;100170.62;;;30.11;37.91
71299;BME280;59083;47.974;21.722;2023-06-26T10:56:48;100172.31;;;29.72;38.59
71299;BME280;59083;47.974;21.722;2023-06-26T11:00:08;100166.34;;;29.87;40.66
71299;BME280;59083;47.974;21.722;2023-06-26T11:03:23;100166.97;;;29.76;40.47
71299;BME280;59083;47.974;21.722;2023-06-26T11:06:24;100157.59;;;29.29;41.23
71299;BME280;59083;47.974;21.722;2023-06-26T11:09:25;100157.25;;;29.22;42.62
71299;BME280;59083;47.974;21.722;2023-06-26T11:12:39;100154.09;;;28.30;40.72
71299;BME280;59083;47.974;21.722;2023-06-26T11:15:43;100150.91;;;28.01;41.29
71299;BME280;59083;47.974;21.722;2023-06-26T11:18:45;100151.28;;;28.44;43.17
71299;BME280;59083;47.974;21.722;2023-06-26T11:21:47;100147.34;;;28.36;41.07
71299;BME280;59083;47.974;21.722;2023-06-26T11:24:50;100152.16;;;27.95;40.79
71299;BME280;59083;47.974;21.722;2023-06-26T11:27:53;100153.53;;;28.06;42.41
71299;BME280;59083;47.974;21.722;2023-06-26T11:30:55;100150.09;;;28.59;40.31
71299;BME280;59083;47.974;21.722;2023-06-26T11:33:57;100148.78;;;28.79;39.42
71299;BME280;59083;47.974;21.722;2023-06-26T11:36:59;100147.47;;;28.98;40.18
71299;BME280;59083;47.974;21.722;2023-06-26T11:40:18;100150.25;;;28.76;40.03
71299;BME280;59083;47.974;21.722;2023-06-26T11:43:20;100148.09;;;28.51;41.17
71299;BME280;59083;47.974;21.722;2023-06-26T11:46:22;100148.63;;;28.75;40.36
71299;BME280;59083;47.974;21.722;2023-06-26T11:49:24;100151.38;;;28.75;41.50
71299;BME280;59083;47.974;21.722;2023-06-26T11:52:27;100152.81;;;28.36;41.40
71299;BME280;59083;47.974;21.722;2023-06-26T11:55:40;100148.53;;;28.08;39.68
71299;BME280;59083;47.974;21.722;2023-06-26T11:59:01;100140.12;;;28.18;41.81
71299;BME280;59083;47.974;21.722;2023-06-26T12:02:08;100141.13;;;28.09;41.81
71299;BME280;59083;47.974;21.722;2023-06-26T12:05:11;100143.34;;;28.20;41.65
71299;BME280;59083;47.974;21.722;2023-06-26T12:08:12;100142.81;;;27.96;42.29
71299;BME280;59083;47.974;21.722;2023-06-26T12:11:14;100144.22;;;27.93;41.44
71299;BME280;59083;47.974;21.722;2023-06-26T12:14:16;100140.09;;;27.69;40.79
71299;BME280;59083;47.974;21.722;2023-06-26T12:17:22;100138.09;;;27.61;42.62
71299;BME280;59083;47.974;21.722;2023-06-26T12:20:24;100143.06;;;27.45;43.48
71299;BME280;59083;47.974;21.722;2023-06-26T12:23:33;100142.34;;;27.39;44.09
71299;BME280;59083;47.974;21.722;2023-06-26T12:26:36;100136.97;;;27.34;44.55
71299;BME280;59083;47.974;21.722;2023-06-26T12:29:40;100140.75;;;27.52;43.27
71299;BME280;59083;47.974;21.722;2023-06-26T12:32:48;100135.31;;;27.88;42.85
71299;BME280;59083;47.974;21.722;2023-06-26T12:35:49;100128.41;;;27.90;40.77
71299;BME280;59083;47.974;21.722;2023-06-26T12:38:52;100136.78;;;28.08;41.62
71299;BME280;59083;47.974;21.722;2023-06-26T12:42:00;100129.16;;;28.05;42.27
71299;BME280;59083;47.974;21.722;2023-06-26T12:45:10;100128.94;;;27.79;40.40
71299;BME280;59083;47.974;21.722;2023-06-26T12:48:12;100122.31;;;27.80;41.60
71299;BME280;59083;47.974;21.722;2023-06-26T12:51:15;100127.63;;;27.76;42.69
71299;BME280;59083;47.974;21.722;2023-06-26T12:54:16;100124.19;;;27.71;42.16
71299;BME280;59083;47.974;21.722;2023-06-26T12:57:17;100124.91;;;27.49;42.66
71299;BME280;59083;47.974;21.722;2023-06-26T13:00:19;100116.56;;;27.40;43.81
71299;BME280;59083;47.974;21.722;2023-06-26T13:03:20;100120.53;;;27.34;43.96
71299;BME280;59083;47.974;21.722;2023-06-26T13:06:24;100120.66;;;27.43;43.38
71299;BME280;59083;47.974;21.722;2023-06-26T13:09:26;100112.25;;;27.39;42.97
71299;BME280;59083;47.974;21.722;2023-06-26T13:12:27;100109.81;;;27.38;43.66
71299;BME280;59083;47.974;21.722;2023-06-26T13:15:28;100109.00;;;27.37;43.30
71299;BME280;59083;47.974;21.722;2023-06-26T13:18:30;100118.72;;;27.43;42.97
71299;BME280;59083;47.974;21.722;2023-06-26T13:21:31;100112.25;;;27.26;44.53
71299;BME280;59083;47.974;21.722;2023-06-26T13:24:32;100110.84;;;27.28;43.99
71299;BME280;59083;47.974;21.722;2023-06-26T13:27:33;100109.69;;;27.29;44.00
71299;BME280;59083;47.974;21.722;2023-06-26T13:30:34;100103.31;;;27.20;44.42
71299;BME280;59083;47.974;21.722;2023-06-26T13:33:35;100101.69;;;27.19;44.33
71299;BME280;59083;47.974;21.722;2023-06-26T13:36:37;100098.84;;;27.24;44.66
71299;BME280;59083;47.974;21.722;2023-06-26T13:39:39;100098.84;;;27.24;45.82
71299;BME280;59083;47.974;21.722;2023-06-26T13:42:40;100088.81;;;27.06;45.18
71299;BME280;59083;47.974;21.722;2023-06-26T13:45:41;100092.78;;;27.13;46.38
71299;BME280;59083;47.974;21.722;2023-06-26T13:48:44;100087.13;;;27.10;46.81
71299;BME280;59083;47.974;21.722;2023-06-26T13:51:45;100082.75;;;27.09;45.56
71299;BME280;59083;47.974;21.722;2023-06-26T13:54:48;100081.13;;;27.08;45.94
71299;BME280;59083;47.974;21.722;2023-06-26T13:57:49;100072.50;;;27.14;45.74
71299;BME280;59083;47.974;21.722;2023-06-26T14:00:50;100078.97;;;27.19;46.24
71299;BME280;59083;47.974;21.722;2023-06-26T14:03:51;100077.69;;;27.02;46.12
71299;BME280;59083;47.974;21.722;2023-06-26T14:06:52;100071.41;;;26.88;45.87
71299;BME280;59083;47.974;21.722;2023-06-26T14:09:54;100070.25;;;26.76;46.36
71299;BME280;59083;47.974;21.722;2023-06-26T14:12:55;100073.47;;;26.64;46.88
71299;BME280;59083;47.974;21.722;2023-06-26T14:15:56;100069.41;;;26.61;47.21
71299;BME280;59083;47.974;21.722;2023-06-26T14:18:57;100078.53;;;26.70;47.02
71299;BME280;59083;47.974;21.722;2023-06-26T14:21:58;100073.66;;;26.67;45.78
71299;BME280;59083;47.974;21.722;2023-06-26T14:25:00;100072.25;;;26.70;46.62
71299;BME280;59083;47.974;21.722;2023-06-26T14:28:01;100069.84;;;26.82;45.85
71299;BME280;59083;47.974;21.722;2023-06-26T14:31:02;100058.50;;;26.89;46.04
71299;BME280;59083;47.974;21.722;2023-06-26T14:34:04;100056.28;;;26.91;45.28
71299;BME280;59083;47.974;21.722;2023-06-26T14:37:05;100058.28;;;26.85;46.06
71299;BME280;59083;47.974;21.722;2023-06-26T14:40:07;100053.22;;;26.79;46.36
71299;BME280;59083;47.974;21.722;2023-06-26T14:43:08;100059.19;;;26.81;46.35
71299;BME280;59083;47.974;21.722;2023-06-26T14:46:10;100056.66;;;26.84;45.68
71299;BME280;59083;47.974;21.722;2023-06-26T14:49:11;100057.47;;;26.85;45.62
71299;BME280;59083;47.974;21.722;2023-06-26T14:52:13;100048.16;;;26.86;45.47
71299;BME280;59083;47.974;21.722;2023-06-26T14:55:14;100045.34;;;26.91;45.99
71299;BME280;59083;47.974;21.722;2023-06-26T14:58:15;100042.50;;;26.96;45.54
71299;BME280;59083;47.974;21.722;2023-06-26T15:01:16;100043.03;;;26.98;44.96
71299;BME280;59083;47.974;21.722;2023-06-26T15:04:18;100042.47;;;26.68;44.96
71299;BME280;59083;47.974;21.722;2023-06-26T15:07:19;100031.22;;;26.56;46.12
71299;BME280;59083;47.974;21.722;2023-06-26T15:10:20;100037.41;;;26.48;45.84
71299;BME280;59083;47.974;21.722;2023-06-26T15:13:22;100036.97;;;26.41;47.21
71299;BME280;59083;47.974;21.722;2023-06-26T15:16:23;100026.81;;;26.28;47.69
71299;BME280;59083;47.974;21.722;2023-06-26T15:19:24;100032.09;;;26.38;47.51
71299;BME280;59083;47.974;21.722;2023-06-26T15:22:26;100028.88;;;26.36;47.82
71299;BME280;59083;47.974;21.722;2023-06-26T15:25:28;100014.91;;;26.51;47.62
71299;BME280;59083;47.974;21.722;2023-06-26T15:28:29;100020.37;;;26.51;47.70
71299;BME280;59083;47.974;21.722;2023-06-26T15:31:30;100020.19;;;26.48;47.47
71299;BME280;59083;47.974;21.722;2023-06-26T15:34:32;100022.91;;;26.48;48.59
71299;BME280;59083;47.974;21.722;2023-06-26T15:37:33;100028.47;;;26.43;48.58
71299;BME280;59083;47.974;21.722;2023-06-26T15:40:34;100028.25;;;26.39;49.00
71299;BME280;59083;47.974;21.722;2023-06-26T15:43:35;100019.56;;;26.37;48.51
71299;BME280;59083;47.974;21.722;2023-06-26T15:46:36;100027.00;;;26.31;48.73
71299;BME280;59083;47.974;21.722;2023-06-26T15:49:37;99992.72;;;26.07;48.91